createdAt,value
2018-09-08T00:00:08.644Z,1.30
2018-09-08T00:02:37.498Z,1.20
2018-09-08T00:05:06.610Z,1.23
2018-09-08T00:07:38.772Z,1.00
2018-09-08T00:10:09.213Z,1.50
2018-09-08T00:12:37.652Z,1.10
2018-09-08T00:15:11.707Z,0.90
2018-09-08T00:17:46.003Z,1.10
2018-09-08T00:20:22.241Z,1.37
2018-09-08T00:22:56.121Z,1.17
2018-09-08T00:25:30.045Z,0.90
2018-09-08T00:28:04.214Z,1.20
2018-09-08T00:30:34.430Z,1.33
2018-09-08T00:33:04.090Z,1.30
2018-09-08T00:35:32.986Z,1.20
2018-09-08T00:38:02.009Z,1.47
2018-09-08T00:40:30.891Z,1.07
2018-09-08T00:42:59.927Z,1.47
2018-09-08T00:45:28.842Z,1.30
2018-09-08T00:47:57.835Z,1.27
2018-09-08T00:50:26.325Z,1.70
2018-09-08T00:52:55.379Z,1.90
2018-09-08T00:55:23.878Z,1.93
2018-09-08T00:57:53.995Z,1.90
2018-09-08T01:00:22.868Z,1.60
2018-09-08T01:02:52.867Z,1.80
2018-09-08T01:05:21.299Z,1.97
2018-09-08T01:07:49.985Z,2.10
2018-09-08T01:10:18.440Z,1.77
2018-09-08T01:12:47.561Z,1.77
2018-09-08T01:15:16.417Z,1.70
2018-09-08T01:17:46.403Z,1.87
2018-09-08T01:20:15.285Z,1.73
2018-09-08T01:22:43.883Z,1.70
2018-09-08T01:25:12.362Z,1.53
2018-09-08T01:27:40.921Z,1.70
2018-09-08T01:30:09.859Z,1.67
2018-09-08T01:32:38.446Z,1.70
2018-09-08T01:35:07.356Z,1.63
2018-09-08T01:37:36.937Z,1.30
2018-09-08T01:40:06.126Z,1.57
2018-09-08T01:42:35.168Z,1.70
2018-09-08T01:45:04.123Z,1.80
2018-09-08T01:47:37.617Z,1.60
2018-09-08T01:50:06.632Z,1.67
2018-09-08T01:52:35.678Z,2.00
2018-09-08T01:55:04.176Z,1.70
2018-09-08T01:57:32.773Z,1.80
2018-09-08T02:00:01.649Z,1.70
2018-09-08T02:02:30.607Z,1.90
2018-09-08T02:04:59.104Z,1.80
2018-09-08T02:07:27.674Z,2.03
2018-09-08T02:09:56.595Z,1.97
2018-09-08T02:12:25.197Z,1.67
2018-09-08T02:14:53.659Z,1.90
2018-09-08T02:17:22.663Z,1.57
2018-09-08T02:19:51.725Z,1.60
2018-09-08T02:22:20.745Z,1.80
2018-09-08T02:24:49.925Z,1.60
2018-09-08T02:27:18.541Z,1.80
2018-09-08T02:29:47.379Z,1.93
2018-09-08T02:32:16.059Z,1.80
2018-09-08T02:34:44.491Z,1.90
2018-09-08T02:37:13.110Z,1.80
2018-09-08T02:39:41.974Z,1.77
2018-09-08T02:42:10.556Z,2.07
2018-09-08T02:44:39.031Z,1.77
2018-09-08T02:47:10.113Z,2.07
2018-09-08T02:49:44.308Z,2.00
2018-09-08T02:52:13.306Z,1.70
2018-09-08T02:54:40.918Z,2.20
2018-09-08T02:57:08.717Z,1.93
2018-09-08T02:59:36.566Z,1.90
2018-09-08T03:02:04.205Z,1.67
2018-09-08T03:04:32.074Z,1.90
2018-09-08T03:06:59.742Z,2.13
2018-09-08T03:09:27.294Z,2.03
2018-09-08T03:11:55.184Z,2.17
2018-09-08T03:14:22.766Z,1.80
2018-09-08T03:16:51.339Z,2.20
2018-09-08T03:19:19.145Z,2.23
2018-09-08T03:21:46.770Z,2.17
2018-09-08T03:24:14.300Z,2.30
2018-09-08T03:26:45.264Z,2.13
2018-09-08T03:29:13.082Z,2.33
2018-09-08T03:31:42.205Z,1.57
2018-09-08T03:34:10.034Z,2.20
2018-09-08T03:36:38.830Z,2.30
2018-09-08T03:39:06.500Z,2.63
2018-09-08T03:41:34.660Z,2.30
2018-09-08T03:44:02.421Z,2.20
2018-09-08T03:46:30.374Z,2.00
2018-09-08T03:48:58.189Z,1.90
2018-09-08T03:51:25.733Z,2.50
2018-09-08T03:53:53.951Z,2.33
2018-09-08T03:56:23.845Z,2.23
2018-09-08T03:58:51.411Z,2.33
2018-09-08T04:01:21.020Z,2.13
2018-09-08T04:03:49.607Z,2.53
2018-09-08T04:06:18.279Z,2.10
2018-09-08T04:08:46.835Z,1.90
2018-09-08T04:11:15.600Z,2.07
2018-09-08T04:13:44.539Z,2.20
2018-09-08T04:16:13.530Z,2.03
2018-09-08T04:18:42.439Z,2.40
2018-09-08T04:21:12.116Z,2.10
2018-09-08T04:23:41.023Z,2.63
2018-09-08T04:26:09.613Z,2.17
2018-09-08T04:28:38.116Z,2.83
2018-09-08T04:31:07.524Z,2.40
2018-09-08T04:33:35.978Z,2.47
2018-09-08T04:36:05.586Z,2.43
2018-09-08T04:38:34.483Z,3.13
2018-09-08T04:41:03.047Z,2.67
2018-09-08T04:43:31.955Z,2.20
2018-09-08T04:46:00.928Z,2.93
2018-09-08T04:48:29.370Z,2.53
2018-09-08T04:50:58.918Z,2.97
2018-09-08T04:53:27.786Z,3.03
2018-09-08T04:55:56.401Z,4.50
2018-09-08T04:58:24.833Z,4.03
2018-09-08T05:00:54.410Z,2.70
2018-09-08T05:03:22.896Z,3.73
2018-09-08T05:05:51.979Z,3.47
2018-09-08T05:08:20.854Z,2.70
2018-09-08T05:10:49.413Z,2.70
2018-09-08T05:13:18.285Z,2.90
2018-09-08T05:15:47.329Z,3.10
2018-09-08T05:18:15.828Z,3.07
2018-09-08T05:20:44.831Z,3.17
2018-09-08T05:23:13.863Z,3.37
2018-09-08T05:25:42.523Z,3.27
2018-09-08T05:28:10.992Z,3.40
2018-09-08T05:30:39.519Z,3.67
2018-09-08T05:33:08.080Z,3.17
2018-09-08T05:35:36.671Z,3.17
2018-09-08T05:38:05.124Z,3.20
2018-09-08T05:40:34.126Z,3.60
2018-09-08T05:43:02.677Z,3.47
2018-09-08T05:45:31.241Z,3.13
2018-09-08T05:48:00.049Z,3.70
2018-09-08T05:50:29.656Z,4.10
2018-09-08T05:52:58.590Z,3.23
2018-09-08T05:55:27.561Z,3.00
2018-09-08T05:57:56.062Z,3.50
2018-09-08T06:00:24.671Z,3.43
2018-09-08T06:02:53.117Z,4.20
2018-09-08T06:05:22.172Z,3.97
2018-09-08T06:07:51.490Z,3.30
2018-09-08T06:10:32.952Z,4.00
2018-09-08T06:13:01.480Z,3.90
2018-09-08T06:15:29.981Z,4.00
2018-09-08T06:17:58.498Z,3.93
2018-09-08T06:20:29.156Z,3.93
2018-09-08T06:22:58.152Z,3.60
2018-09-08T06:25:28.048Z,4.17
2018-09-08T06:27:56.950Z,3.60
2018-09-08T06:30:26.013Z,4.23
2018-09-08T06:32:54.453Z,3.77
2018-09-08T06:35:23.143Z,3.70
2018-09-08T06:37:52.028Z,3.97
2018-09-08T06:40:20.617Z,4.27
2018-09-08T06:42:49.076Z,4.17
2018-09-08T06:45:18.687Z,4.00
2018-09-08T06:47:47.269Z,4.60
2018-09-08T06:50:16.918Z,4.63
2018-09-08T06:52:45.412Z,4.27
2018-09-08T06:55:14.014Z,4.03
2018-09-08T06:57:42.452Z,4.23
2018-09-08T07:00:11.122Z,3.90
2018-09-08T07:02:39.976Z,3.67
2018-09-08T07:05:08.894Z,4.23
2018-09-08T07:07:37.795Z,3.77
2018-09-08T07:10:10.042Z,3.83
2018-09-08T07:12:38.500Z,4.20
2018-09-08T07:15:08.152Z,3.77
2018-09-08T07:17:36.607Z,3.83
2018-09-08T07:20:07.257Z,3.30
2018-09-08T07:22:36.110Z,4.20
2018-09-08T07:25:08.801Z,3.67
2018-09-08T07:27:37.692Z,3.50
2018-09-08T07:30:07.281Z,3.43
2018-09-08T07:32:35.758Z,3.30
2018-09-08T07:35:06.391Z,3.33
2018-09-08T07:37:35.281Z,2.90
2018-09-08T07:40:11.530Z,3.10
2018-09-08T07:42:40.424Z,3.60
2018-09-08T07:45:09.035Z,3.10
2018-09-08T07:47:37.983Z,3.30
2018-09-08T07:50:06.597Z,3.07
2018-09-08T07:52:35.079Z,3.00
2018-09-08T07:55:04.762Z,3.20
2018-09-08T07:57:33.250Z,3.13
2018-09-08T08:00:06.432Z,3.20
2018-09-08T08:02:35.022Z,2.87
2018-09-08T08:05:05.092Z,3.30
2018-09-08T08:07:33.549Z,2.87
2018-09-08T08:10:03.169Z,2.77
2018-09-08T08:12:31.606Z,2.70
2018-09-08T08:15:00.183Z,2.53
2018-09-08T08:17:28.672Z,2.60
2018-09-08T08:19:58.272Z,2.77
2018-09-08T08:28:00.042Z,2.77
2018-09-08T08:30:29.124Z,2.40
2018-09-08T08:32:58.019Z,2.40
2018-09-08T08:35:26.786Z,2.67
2018-09-08T08:37:55.650Z,2.60
2018-09-08T08:40:24.398Z,3.43
2018-09-08T08:42:53.235Z,2.63
2018-09-08T08:45:23.344Z,2.10
2018-09-08T08:47:51.919Z,2.37
2018-09-08T08:50:26.930Z,2.30
2018-09-08T08:53:00.946Z,2.23
2018-09-08T08:55:30.203Z,2.57
2018-09-08T08:57:58.865Z,2.77
2018-09-08T09:00:27.301Z,2.70
2018-09-08T09:02:55.903Z,2.37
2018-09-08T09:05:24.872Z,2.23
2018-09-08T09:07:54.064Z,1.90
2018-09-08T09:10:22.486Z,2.37
2018-09-08T09:12:58.811Z,2.17
2018-09-08T09:15:28.130Z,2.07
2018-09-08T09:17:58.576Z,2.20
2018-09-08T09:20:39.967Z,2.60
2018-09-08T09:23:14.174Z,2.20
2018-09-08T09:25:42.954Z,2.10
2018-09-08T09:28:11.965Z,1.80
2018-09-08T09:30:42.089Z,2.13
2018-09-08T09:33:10.559Z,1.90
2018-09-08T09:35:41.700Z,1.83
2018-09-08T09:38:10.577Z,1.60
2018-09-08T09:40:42.344Z,1.73
2018-09-08T09:43:11.229Z,1.83
2018-09-08T09:45:39.919Z,2.00
2018-09-08T09:48:08.405Z,2.30
2018-09-08T09:50:37.434Z,2.10
2018-09-08T09:53:05.912Z,1.90
2018-09-08T09:55:34.587Z,2.07
2018-09-08T09:58:03.147Z,2.03
2018-09-08T10:00:37.432Z,2.00
2018-09-08T10:03:07.590Z,2.47
2018-09-08T10:05:37.173Z,2.00
2018-09-08T10:08:05.590Z,2.30
2018-09-08T10:10:40.961Z,2.20
2018-09-08T10:13:09.435Z,2.17
2018-09-08T10:15:38.462Z,2.00
2018-09-08T10:18:07.325Z,2.20
2018-09-08T10:20:39.644Z,2.30
2018-09-08T10:23:08.244Z,2.13
2018-09-08T10:25:37.276Z,2.00
2018-09-08T10:28:05.846Z,2.20
2018-09-08T10:30:34.538Z,2.40
2018-09-08T10:33:03.499Z,2.60
2018-09-08T10:35:42.453Z,2.40
2018-09-08T10:44:09.807Z,1.90
2018-09-08T10:46:38.273Z,1.67
2018-09-08T10:49:07.392Z,2.57
2018-09-08T10:52:43.552Z,1.97
2018-09-08T10:55:12.013Z,2.20
2018-09-08T10:57:41.069Z,2.27
2018-09-08T11:00:10.586Z,2.07
2018-09-08T11:02:42.320Z,2.40
2018-09-08T11:05:10.544Z,2.50
2018-09-08T11:07:39.101Z,1.90
2018-09-08T11:10:07.601Z,1.80
2018-09-08T11:12:36.190Z,2.20
2018-09-08T11:17:33.430Z,2.40
2018-09-08T11:20:02.393Z,2.70
2018-09-08T11:22:34.229Z,2.27
2018-09-08T11:25:02.708Z,2.20
2018-09-08T11:27:31.816Z,1.93
2018-09-08T11:30:00.731Z,2.17
2018-09-08T11:32:33.234Z,1.87
2018-09-08T11:35:02.216Z,2.20
2018-09-08T11:37:38.312Z,2.43
2018-09-08T11:40:07.227Z,2.00
2018-09-08T11:42:41.586Z,2.07
2018-09-08T11:45:10.442Z,2.30
2018-09-08T11:47:39.435Z,2.10
2018-09-08T11:50:08.330Z,2.10
2018-09-08T11:52:52.603Z,2.40
2018-09-08T11:55:21.490Z,2.27
2018-09-08T11:57:50.501Z,2.30
2018-09-08T12:00:19.445Z,2.00
2018-09-08T12:02:51.941Z,2.80
2018-09-08T12:05:20.818Z,2.40
2018-09-08T12:07:49.801Z,2.23
2018-09-08T12:10:18.662Z,2.00
2018-09-08T12:12:47.727Z,2.17
2018-09-08T12:15:16.622Z,1.63
2018-09-08T12:17:48.968Z,1.93
2018-09-08T12:20:17.832Z,1.87
2018-09-08T12:22:46.443Z,2.00
2018-09-08T12:25:14.946Z,2.20
2018-09-08T12:27:43.943Z,1.87
2018-09-08T12:30:12.864Z,2.30
2018-09-08T12:32:45.011Z,1.90
2018-09-08T12:35:13.866Z,1.70
2018-09-08T12:37:42.496Z,1.67
2018-09-08T12:40:11.375Z,1.90
2018-09-08T12:42:40.020Z,1.90
2018-09-08T12:45:09.819Z,2.47
2018-09-08T12:47:39.160Z,2.30
2018-09-08T12:50:08.527Z,1.97
2018-09-08T12:52:41.141Z,1.67
2018-09-08T12:55:10.094Z,1.80
2018-09-08T12:57:39.057Z,2.00
2018-09-08T13:00:07.981Z,2.07
2018-09-08T13:02:37.115Z,2.17
2018-09-08T13:05:05.572Z,1.87
2018-09-08T13:07:34.427Z,1.83
2018-09-08T13:10:03.299Z,1.93
2018-09-08T13:12:32.422Z,1.60
2018-09-08T13:15:01.284Z,1.43
2018-09-08T13:17:30.357Z,1.70
2018-09-08T13:19:58.805Z,1.90
2018-09-08T13:22:27.800Z,2.30
2018-09-08T13:24:56.623Z,1.60
2018-09-08T13:27:26.622Z,1.60
2018-09-08T13:29:55.538Z,1.83
2018-09-08T13:32:28.347Z,2.03
2018-09-08T13:34:57.530Z,1.90
2018-09-08T13:37:29.930Z,2.00
2018-09-08T13:39:58.405Z,1.77
2018-09-08T13:42:28.051Z,1.57
2018-09-08T13:44:56.966Z,1.70
2018-09-08T13:47:30.968Z,1.67
2018-09-08T13:49:59.898Z,1.50
2018-09-08T13:52:28.886Z,1.50
2018-09-08T13:54:57.389Z,1.77
2018-09-08T13:57:26.050Z,1.60
2018-09-08T13:59:54.559Z,2.00
2018-09-08T14:02:23.229Z,1.77
2018-09-08T14:04:51.721Z,1.60
2018-09-08T14:07:25.139Z,1.90
2018-09-08T14:09:54.044Z,1.90
2018-09-08T14:12:33.828Z,1.60
2018-09-08T14:15:02.751Z,1.80
2018-09-08T14:17:31.438Z,1.83
2018-09-08T14:19:59.902Z,1.80
2018-09-08T14:22:28.892Z,1.50
2018-09-08T14:24:57.778Z,1.67
2018-09-08T14:27:30.557Z,1.53
2018-09-08T14:29:59.454Z,2.20
2018-09-08T14:32:28.568Z,1.77
2018-09-08T14:34:57.505Z,1.60
2018-09-08T14:37:27.610Z,1.70
2018-09-08T14:39:56.484Z,1.50
2018-09-08T14:42:25.135Z,1.60
2018-09-08T14:44:53.600Z,1.47
2018-09-08T14:53:02.482Z,1.30
2018-09-08T14:55:30.963Z,1.77
2018-09-08T14:57:59.549Z,1.50
2018-09-08T15:00:28.421Z,1.60
2018-09-08T15:02:57.237Z,2.00
2018-09-08T15:05:26.483Z,1.70
2018-09-08T15:07:55.118Z,1.90
2018-09-08T15:10:23.942Z,1.90
2018-09-08T15:12:53.016Z,1.50
2018-09-08T15:15:21.871Z,1.73
2018-09-08T15:17:50.380Z,1.43
2018-09-08T15:22:57.293Z,1.80
2018-09-08T15:25:26.722Z,2.00
2018-09-08T15:27:55.751Z,1.40
2018-09-08T15:30:24.624Z,1.60
2018-09-08T15:32:53.299Z,1.60
2018-09-08T15:35:22.014Z,1.50
2018-09-08T15:37:51.030Z,1.50
2018-09-08T15:40:19.901Z,2.30
2018-09-08T15:42:48.930Z,1.60
2018-09-08T15:45:17.808Z,1.80
2018-09-08T15:47:47.846Z,1.27
2018-09-08T15:50:19.537Z,1.70
2018-09-08T15:52:48.457Z,1.13
2018-09-08T15:55:17.705Z,1.53
2018-09-08T15:57:46.727Z,2.20
2018-09-08T16:00:15.616Z,1.77
2018-09-08T16:02:44.616Z,1.83
2018-09-08T16:05:13.536Z,1.30
2018-09-08T16:07:44.958Z,1.77
2018-09-08T16:10:13.481Z,1.37
2018-09-08T16:12:44.698Z,1.57
2018-09-08T16:15:14.278Z,1.57
2018-09-08T16:17:50.439Z,1.63
2018-09-08T16:20:19.303Z,1.67
2018-09-08T16:22:48.797Z,1.77
2018-09-08T16:25:17.674Z,1.80
2018-09-08T16:27:49.532Z,1.50
2018-09-08T16:30:20.401Z,1.70
2018-09-08T16:32:50.112Z,1.80
2018-09-08T16:35:19.061Z,1.50
2018-09-08T16:37:48.095Z,1.87
2018-09-08T16:40:17.038Z,1.90
2018-09-08T16:42:46.088Z,1.93
2018-09-08T16:45:14.922Z,1.70
2018-09-08T16:47:44.514Z,1.67
2018-09-08T16:50:13.751Z,1.97
2018-09-08T16:52:42.540Z,2.03
2018-09-08T16:55:11.668Z,1.90
2018-09-08T16:57:40.224Z,2.03
2018-09-08T17:00:09.533Z,1.93
2018-09-08T17:02:38.116Z,2.10
2018-09-08T17:05:07.035Z,1.67
2018-09-08T17:07:36.116Z,2.20
2018-09-08T17:10:05.188Z,1.80
2018-09-08T17:12:37.141Z,2.40
2018-09-08T17:15:06.831Z,1.67
2018-09-08T17:17:38.280Z,2.03
2018-09-08T17:20:07.144Z,2.30
2018-09-08T17:22:36.169Z,1.97
2018-09-08T17:25:05.109Z,2.07
2018-09-08T17:27:34.087Z,2.03
2018-09-08T17:30:02.999Z,1.70
2018-09-08T17:32:31.943Z,1.80
2018-09-08T17:35:00.790Z,2.07
2018-09-08T17:37:31.352Z,2.10
2018-09-08T17:40:00.334Z,2.47
2018-09-08T17:42:29.319Z,2.33
2018-09-08T17:44:58.153Z,2.70
2018-09-08T17:47:27.133Z,2.30
2018-09-08T17:49:55.630Z,1.87
2018-09-08T17:52:24.229Z,2.20
2018-09-08T17:54:53.071Z,2.37
2018-09-08T17:57:21.601Z,2.37
2018-09-08T17:59:50.124Z,1.90
2018-09-08T18:02:18.923Z,2.30
2018-09-08T18:04:48.056Z,2.30
2018-09-08T18:07:18.379Z,2.20
2018-09-08T18:09:48.260Z,1.87
2018-09-08T18:12:17.848Z,2.00
2018-09-08T18:14:47.110Z,1.90
2018-09-08T18:17:16.008Z,2.37
2018-09-08T18:19:48.616Z,2.03
2018-09-08T18:22:17.395Z,1.80
2018-09-08T18:24:49.610Z,2.20
2018-09-08T18:27:18.626Z,1.80
2018-09-08T18:29:48.169Z,1.90
2018-09-08T18:32:20.001Z,1.97
2018-09-08T18:34:48.939Z,1.83
2018-09-08T18:37:20.822Z,1.90
2018-09-08T18:39:49.710Z,1.60
2018-09-08T18:42:18.273Z,1.70
2018-09-08T18:44:51.114Z,1.97
2018-09-08T18:47:20.100Z,2.17
2018-09-08T18:49:50.644Z,1.73
2018-09-08T18:52:20.573Z,2.17
2018-09-08T18:54:49.541Z,2.30
2018-09-08T18:57:19.993Z,1.97
2018-09-08T18:59:48.468Z,1.90
2018-09-08T19:02:17.234Z,1.60
2018-09-08T19:04:46.069Z,1.60
2018-09-08T19:07:14.590Z,1.50
2018-09-08T19:09:46.982Z,1.90
2018-09-08T19:12:15.471Z,2.30
2018-09-08T19:14:50.488Z,1.90
2018-09-08T19:17:18.975Z,1.73
2018-09-08T19:19:48.009Z,1.87
2018-09-08T19:22:16.651Z,2.10
2018-09-08T19:24:45.060Z,1.87
2018-09-08T19:27:14.514Z,2.10
2018-09-08T19:29:48.378Z,2.37
2018-09-08T19:32:18.610Z,2.43
2018-09-08T19:34:53.301Z,2.73
2018-09-08T19:37:21.779Z,3.50
2018-09-08T19:39:52.971Z,3.13
2018-09-08T19:42:24.990Z,2.80
2018-09-08T19:44:55.981Z,2.73
2018-09-08T19:47:31.578Z,2.70
2018-09-08T19:50:03.279Z,2.33
2018-09-08T19:52:39.943Z,1.83
2018-09-08T19:55:10.204Z,2.23
2018-09-08T19:57:46.685Z,2.00
2018-09-08T20:00:16.208Z,2.30
2018-09-08T20:02:47.456Z,2.30
2018-09-08T20:05:17.777Z,2.00
2018-09-08T20:07:48.602Z,2.03
2018-09-08T20:10:18.601Z,2.30
2018-09-08T20:12:48.918Z,2.03
2018-09-08T20:15:17.817Z,2.00
2018-09-08T20:17:47.496Z,2.27
2018-09-08T20:20:16.349Z,2.17
2018-09-08T20:22:45.004Z,2.00
2018-09-08T20:25:13.603Z,2.23
2018-09-08T20:27:42.281Z,2.10
2018-09-08T20:30:11.459Z,2.10
2018-09-08T20:32:41.668Z,2.50
2018-09-08T20:35:10.719Z,2.43
2018-09-08T20:37:41.454Z,1.90
2018-09-08T20:40:10.398Z,2.43
2018-09-08T20:42:40.532Z,2.40
2018-09-08T20:45:09.004Z,2.30
2018-09-08T20:47:41.045Z,2.70
2018-09-08T20:50:09.740Z,2.60
2018-09-08T20:52:38.836Z,2.27
2018-09-08T20:55:07.735Z,2.47
2018-09-08T20:57:36.367Z,2.30
2018-09-08T21:00:08.237Z,2.47
2018-09-08T21:02:37.145Z,2.43
2018-09-08T21:05:06.861Z,2.63
2018-09-08T21:07:37.463Z,2.80
2018-09-08T21:10:05.920Z,2.20
2018-09-08T21:12:34.678Z,2.20
2018-09-08T21:15:03.240Z,2.43
2018-09-08T21:17:32.297Z,2.27
2018-09-08T21:20:05.787Z,2.60
2018-09-08T21:22:35.292Z,2.80
2018-09-08T21:25:03.949Z,3.00
2018-09-08T21:27:32.429Z,2.70
2018-09-08T21:30:01.539Z,3.00
2018-09-08T21:32:30.650Z,2.90
2018-09-08T21:34:59.402Z,2.50
2018-09-08T21:37:29.253Z,2.37
2018-09-08T21:39:58.040Z,2.33
2018-09-08T21:42:27.033Z,2.70
2018-09-08T21:44:57.859Z,2.57
2018-09-08T21:47:27.114Z,2.60
2018-09-08T21:49:55.698Z,2.83
2018-09-08T21:52:24.235Z,2.70
2018-09-08T21:54:53.110Z,2.27
2018-09-08T21:57:22.132Z,2.70
2018-09-08T21:59:52.939Z,2.67
2018-09-08T22:02:21.515Z,2.27
2018-09-08T22:04:50.237Z,2.23
2018-09-08T22:07:19.175Z,2.17
2018-09-08T22:09:48.003Z,2.20
2018-09-08T22:12:17.194Z,2.40
2018-09-08T22:14:46.336Z,2.30
2018-09-08T22:17:15.265Z,2.00
2018-09-08T22:19:44.056Z,2.20
2018-09-08T22:22:12.535Z,2.27
2018-09-08T22:24:41.830Z,1.80
2018-09-08T22:27:10.724Z,2.13
2018-09-08T22:29:39.849Z,2.00
2018-09-08T22:32:08.799Z,2.03
2018-09-08T22:34:38.484Z,2.10
2018-09-08T22:37:07.838Z,2.17
2018-09-08T22:39:40.916Z,1.83
2018-09-08T22:42:09.673Z,2.20
2018-09-08T22:44:38.539Z,2.10
2018-09-08T22:47:07.138Z,2.20
2018-09-08T22:49:35.846Z,2.17
2018-09-08T22:52:04.311Z,2.50
2018-09-08T22:54:32.954Z,2.30
2018-09-08T22:57:01.811Z,2.40
2018-09-08T22:59:30.683Z,2.93
2018-09-08T23:01:59.212Z,2.93
2018-09-08T23:04:28.371Z,2.20
2018-09-08T23:06:57.027Z,2.23
2018-09-08T23:09:26.150Z,2.77
2018-09-08T23:11:55.047Z,2.37
2018-09-08T23:14:24.228Z,2.20
2018-09-08T23:16:53.160Z,2.40
2018-09-08T23:19:21.840Z,2.07
2018-09-08T23:21:50.309Z,2.00
2018-09-08T23:24:18.953Z,2.30
2018-09-08T23:26:47.862Z,2.20
2018-09-08T23:29:16.430Z,2.00
2018-09-08T23:31:45.288Z,2.70
2018-09-08T23:34:14.244Z,1.90
2018-09-08T23:36:42.742Z,2.00
2018-09-08T23:39:13.350Z,2.10
2018-09-08T23:41:42.261Z,1.90
2018-09-08T23:44:10.901Z,2.57
2018-09-08T23:46:39.761Z,2.40
2018-09-08T23:49:08.358Z,2.53
2018-09-08T23:51:37.202Z,2.67
2018-09-08T23:54:06.270Z,2.53
2018-09-08T23:56:34.760Z,2.53
2018-09-08T23:59:03.857Z,2.37
